sensor_id;sensor_type;location;lat;lon;timestamp;pressure;altitude;pressure_sealevel;temperature;humidity
74893;BME280;63446;56.272;43.922;2023-03-31T00:02:19;100001.63;;;8.54;64.27
74893;BME280;63446;56.272;43.922;2023-03-31T00:04:46;100000.03;;;8.53;64.25
74893;BME280;63446;56.272;43.922;2023-03-31T00:07:18;99994.75;;;8.53;64.17
74893;BME280;63446;56.272;43.922;2023-03-31T00:09:47;99998.47;;;8.52;64.25
74893;BME280;63446;56.272;43.922;2023-03-31T00:12:14;99983.19;;;8.49;64.27
74893;BME280;63446;56.272;43.922;2023-03-31T00:14:41;99988.44;;;8.49;64.31
74893;BME280;63446;56.272;43.922;2023-03-31T00:17:08;99989.00;;;8.46;64.46
74893;BME280;63446;56.272;43.922;2023-03-31T00:19:35;99983.47;;;8.42;64.26
74893;BME280;63446;56.272;43.922;2023-03-31T00:22:01;99990.03;;;8.40;64.50
74893;BME280;63446;56.272;43.922;2023-03-31T00:24:28;99986.84;;;8.38;64.57
74893;BME280;63446;56.272;43.922;2023-03-31T00:26:58;99977.63;;;8.35;64.49
74893;BME280;63446;56.272;43.922;2023-03-31T00:29:24;99991.31;;;8.32;64.60
74893;BME280;63446;56.272;43.922;2023-03-31T00:31:50;99991.59;;;8.30;64.71
74893;BME280;63446;56.272;43.922;2023-03-31T00:34:16;99979.72;;;8.28;64.83
74893;BME280;63446;56.272;43.922;2023-03-31T00:36:41;99975.53;;;8.27;64.85
74893;BME280;63446;56.272;43.922;2023-03-31T00:39:15;99971.56;;;8.24;64.91
74893;BME280;63446;56.272;43.922;2023-03-31T00:41:43;99964.72;;;8.23;65.05
74893;BME280;63446;56.272;43.922;2023-03-31T00:49:39;99968.13;;;8.29;65.18
74893;BME280;63446;56.272;43.922;2023-03-31T00:52:11;99956.81;;;8.28;65.12
74893;BME280;63446;56.272;43.922;2023-03-31T00:54:40;99958.94;;;8.31;65.08
74893;BME280;63446;56.272;43.922;2023-03-31T00:57:07;99960.78;;;8.31;65.18
74893;BME280;63446;56.272;43.922;2023-03-31T00:59:38;99961.28;;;8.33;65.29
74893;BME280;63446;56.272;43.922;2023-03-31T01:02:07;99963.41;;;8.36;65.29
74893;BME280;63446;56.272;43.922;2023-03-31T01:04:45;99955.50;;;8.31;65.23
74893;BME280;63446;56.272;43.922;2023-03-31T01:07:34;99953.66;;;8.31;65.39
74893;BME280;63446;56.272;43.922;2023-03-31T01:10:03;99945.22;;;8.29;65.36
74893;BME280;63446;56.272;43.922;2023-03-31T01:12:32;99952.34;;;8.29;65.41
74893;BME280;63446;56.272;43.922;2023-03-31T01:15:00;99952.09;;;8.30;65.48
74893;BME280;63446;56.272;43.922;2023-03-31T01:17:26;99948.41;;;8.31;65.55
74893;BME280;63446;56.272;43.922;2023-03-31T01:20:02;99957.88;;;8.32;65.53
74893;BME280;63446;56.272;43.922;2023-03-31T01:39:55;99951.28;;;8.10;66.25
74893;BME280;63446;56.272;43.922;2023-03-31T01:45:25;99953.09;;;7.99;66.41
74893;BME280;63446;56.272;43.922;2023-03-31T01:47:58;99942.56;;;7.94;66.54
74893;BME280;63446;56.272;43.922;2023-03-31T01:56:30;99931.50;;;7.76;66.97
74893;BME280;63446;56.272;43.922;2023-03-31T01:59:10;99962.75;;;7.68;67.06
74893;BME280;63446;56.272;43.922;2023-03-31T02:01:44;99962.47;;;7.54;67.22
74893;BME280;63446;56.272;43.922;2023-03-31T02:04:17;99967.69;;;7.44;67.57
74893;BME280;63446;56.272;43.922;2023-03-31T02:06:50;99965.03;;;7.39;67.84
74893;BME280;63446;56.272;43.922;2023-03-31T02:09:21;99972.38;;;7.37;67.96
74893;BME280;63446;56.272;43.922;2023-03-31T02:11:50;99981.59;;;7.39;67.90
74893;BME280;63446;56.272;43.922;2023-03-31T02:14:21;99983.19;;;7.45;68.08
74893;BME280;63446;56.272;43.922;2023-03-31T02:17:18;99979.00;;;7.49;67.97
74893;BME280;63446;56.272;43.922;2023-03-31T02:19:48;99979.28;;;7.53;68.00
74893;BME280;63446;56.272;43.922;2023-03-31T02:22:17;99976.66;;;7.53;68.02
74893;BME280;63446;56.272;43.922;2023-03-31T02:24:46;99970.59;;;7.52;68.04
74893;BME280;63446;56.272;43.922;2023-03-31T02:27:18;99970.59;;;7.52;68.04
74893;BME280;63446;56.272;43.922;2023-03-31T02:29:47;99967.44;;;7.50;68.16
74893;BME280;63446;56.272;43.922;2023-03-31T02:32:22;99997.94;;;7.46;68.32
74893;BME280;63446;56.272;43.922;2023-03-31T02:34:52;100013.44;;;7.43;68.38
74893;BME280;63446;56.272;43.922;2023-03-31T02:37:19;100011.03;;;7.41;68.64
74893;BME280;63446;56.272;43.922;2023-03-31T02:39:47;100007.13;;;7.44;68.52
74893;BME280;63446;56.272;43.922;2023-03-31T02:42:14;100010.53;;;7.44;68.42
74893;BME280;63446;56.272;43.922;2023-03-31T02:44:41;100005.03;;;7.46;68.59
74893;BME280;63446;56.272;43.922;2023-03-31T02:47:09;100005.81;;;7.46;68.68
74893;BME280;63446;56.272;43.922;2023-03-31T02:49:38;99997.66;;;7.48;68.81
74893;BME280;63446;56.272;43.922;2023-03-31T02:55:18;99975.59;;;7.49;68.67
74893;BME280;63446;56.272;43.922;2023-03-31T03:01:17;99948.78;;;7.47;68.80
74893;BME280;63446;56.272;43.922;2023-03-31T03:04:59;99935.88;;;7.45;68.84
74893;BME280;63446;56.272;43.922;2023-03-31T03:13:20;99924.88;;;7.53;68.71
74893;BME280;63446;56.272;43.922;2023-03-31T03:16:00;99933.03;;;7.62;68.81
74893;BME280;63446;56.272;43.922;2023-03-31T03:18:29;99947.78;;;7.68;68.73
74893;BME280;63446;56.272;43.922;2023-03-31T03:20:55;99959.34;;;7.72;68.72
74893;BME280;63446;56.272;43.922;2023-03-31T03:23:21;99956.75;;;7.77;68.67
74893;BME280;63446;56.272;43.922;2023-03-31T03:25:47;99956.50;;;7.84;68.64
74893;BME280;63446;56.272;43.922;2023-03-31T03:28:14;99946.78;;;7.95;68.50
74893;BME280;63446;56.272;43.922;2023-03-31T03:30:39;99943.94;;;8.27;68.12
74893;BME280;63446;56.272;43.922;2023-03-31T03:33:05;99931.53;;;8.68;67.63
74893;BME280;63446;56.272;43.922;2023-03-31T03:35:32;99927.78;;;8.95;67.26
74893;BME280;63446;56.272;43.922;2023-03-31T03:37:58;99941.47;;;9.02;66.79
74893;BME280;63446;56.272;43.922;2023-03-31T03:40:24;99937.78;;;9.08;66.58
74893;BME280;63446;56.272;43.922;2023-03-31T03:42:50;99933.00;;;9.10;66.59
74893;BME280;63446;56.272;43.922;2023-03-31T03:45:16;99928.56;;;9.05;66.61
74893;BME280;63446;56.272;43.922;2023-03-31T03:47:42;99923.28;;;9.05;66.63
74893;BME280;63446;56.272;43.922;2023-03-31T03:50:08;99918.78;;;9.06;66.72
74893;BME280;63446;56.272;43.922;2023-03-31T03:52:34;99918.78;;;9.06;66.63
74893;BME280;63446;56.272;43.922;2023-03-31T03:55:01;99924.88;;;9.01;66.67
74893;BME280;63446;56.272;43.922;2023-03-31T03:57:29;99916.47;;;8.99;66.87
74893;BME280;63446;56.272;43.922;2023-03-31T03:59:54;99912.22;;;8.98;66.92
74893;BME280;63446;56.272;43.922;2023-03-31T04:02:20;99926.19;;;9.04;66.96
74893;BME280;63446;56.272;43.922;2023-03-31T04:04:46;99905.84;;;9.20;66.75
74893;BME280;63446;56.272;43.922;2023-03-31T04:07:12;99897.72;;;9.61;66.14
74893;BME280;63446;56.272;43.922;2023-03-31T04:09:38;99889.56;;;9.96;65.69
74893;BME280;63446;56.272;43.922;2023-03-31T04:12:04;99895.47;;;10.17;65.12
74893;BME280;63446;56.272;43.922;2023-03-31T04:14:29;99903.06;;;10.29;64.80
74893;BME280;63446;56.272;43.922;2023-03-31T04:16:56;99908.88;;;10.31;64.59
74893;BME280;63446;56.272;43.922;2023-03-31T04:19:23;99901.50;;;10.23;64.60
74893;BME280;63446;56.272;43.922;2023-03-31T04:21:51;99893.13;;;10.16;64.70
74893;BME280;63446;56.272;43.922;2023-03-31T04:24:26;99894.75;;;10.07;64.95
74893;BME280;63446;56.272;43.922;2023-03-31T04:26:56;99900.63;;;9.98;65.23
74893;BME280;63446;56.272;43.922;2023-03-31T04:29:22;99898.03;;;9.93;65.11
74893;BME280;63446;56.272;43.922;2023-03-31T04:31:54;99895.69;;;9.87;65.24
74893;BME280;63446;56.272;43.922;2023-03-31T04:34:24;99895.22;;;9.79;65.30
74893;BME280;63446;56.272;43.922;2023-03-31T04:37:11;99887.34;;;9.74;65.50
74893;BME280;63446;56.272;43.922;2023-03-31T04:39:37;99887.66;;;9.68;65.66
74893;BME280;63446;56.272;43.922;2023-03-31T04:42:02;99898.53;;;9.61;65.75
74893;BME280;63446;56.272;43.922;2023-03-31T04:44:29;99900.38;;;9.56;65.91
74893;BME280;63446;56.272;43.922;2023-03-31T04:46:55;99898.56;;;9.51;65.96
74893;BME280;63446;56.272;43.922;2023-03-31T04:49:21;99893.03;;;9.47;66.01
74893;BME280;63446;56.272;43.922;2023-03-31T04:51:48;99903.88;;;9.46;66.02
74893;BME280;63446;56.272;43.922;2023-03-31T04:54:14;99892.53;;;9.45;66.20
74893;BME280;63446;56.272;43.922;2023-03-31T04:56:40;99888.84;;;9.46;66.18
74893;BME280;63446;56.272;43.922;2023-03-31T04:59:05;99892.22;;;9.52;66.03
74893;BME280;63446;56.272;43.922;2023-03-31T05:01:33;99899.31;;;9.57;66.07
74893;BME280;63446;56.272;43.922;2023-03-31T05:04:04;99908.25;;;9.61;65.95
74893;BME280;63446;56.272;43.922;2023-03-31T05:06:30;99900.09;;;9.62;65.92
74893;BME280;63446;56.272;43.922;2023-03-31T05:08:56;99901.13;;;9.66;65.93
74893;BME280;63446;56.272;43.922;2023-03-31T05:11:22;99891.84;;;9.74;65.72
74893;BME280;63446;56.272;43.922;2023-03-31T05:13:48;99867.75;;;9.86;65.59
74893;BME280;63446;56.272;43.922;2023-03-31T05:16:14;99864.44;;;10.04;65.28
74893;BME280;63446;56.272;43.922;2023-03-31T05:18:41;99855.25;;;10.31;64.94
74893;BME280;63446;56.272;43.922;2023-03-31T05:21:14;99852.88;;;10.58;64.49
74893;BME280;63446;56.272;43.922;2023-03-31T05:23:41;99861.34;;;10.79;64.18
74893;BME280;63446;56.272;43.922;2023-03-31T05:26:09;99875.78;;;10.87;63.94
74893;BME280;63446;56.272;43.922;2023-03-31T05:28:36;99893.59;;;10.81;63.91
74893;BME280;63446;56.272;43.922;2023-03-31T05:31:05;99905.38;;;10.65;64.03
74893;BME280;63446;56.272;43.922;2023-03-31T05:33:31;99912.69;;;10.44;64.25
74893;BME280;63446;56.272;43.922;2023-03-31T05:35:57;99909.44;;;10.18;64.63
74893;BME280;63446;56.272;43.922;2023-03-31T05:38:26;99908.28;;;10.00;64.93
74893;BME280;63446;56.272;43.922;2023-03-31T05:40:56;99913.44;;;9.81;65.37
74893;BME280;63446;56.272;43.922;2023-03-31T05:43:22;99902.44;;;9.69;65.52
74893;BME280;63446;56.272;43.922;2023-03-31T05:45:48;99895.88;;;9.61;65.68
74893;BME280;63446;56.272;43.922;2023-03-31T05:48:15;99885.38;;;9.51;66.02
74893;BME280;63446;56.272;43.922;2023-03-31T05:50:41;99880.69;;;9.43;66.10
74893;BME280;63446;56.272;43.922;2023-03-31T05:53:07;99892.31;;;9.37;66.33
74893;BME280;63446;56.272;43.922;2023-03-31T05:55:38;99880.47;;;9.34;66.38
74893;BME280;63446;56.272;43.922;2023-03-31T05:58:04;99881.25;;;9.35;66.45
74893;BME280;63446;56.272;43.922;2023-03-31T06:00:31;99885.19;;;9.37;66.60
74893;BME280;63446;56.272;43.922;2023-03-31T06:02:57;99874.09;;;9.40;66.51
74893;BME280;63446;56.272;43.922;2023-03-31T06:05:24;99854.31;;;9.43;66.47
74893;BME280;63446;56.272;43.922;2023-03-31T06:07:56;99860.31;;;9.48;66.50
74893;BME280;63446;56.272;43.922;2023-03-31T06:10:22;99857.41;;;9.55;66.55
74893;BME280;63446;56.272;43.922;2023-03-31T06:12:48;99863.97;;;9.58;66.47
74893;BME280;63446;56.272;43.922;2023-03-31T06:15:15;99859.50;;;9.58;66.35
74893;BME280;63446;56.272;43.922;2023-03-31T06:17:41;99853.19;;;9.49;66.66
74893;BME280;63446;56.272;43.922;2023-03-31T06:20:07;99863.00;;;9.43;66.70
74893;BME280;63446;56.272;43.922;2023-03-31T06:22:34;99868.59;;;9.32;66.93
74893;BME280;63446;56.272;43.922;2023-03-31T06:24:59;99871.56;;;9.20;67.18
74893;BME280;63446;56.272;43.922;2023-03-31T06:27:26;99868.72;;;9.11;67.27
74893;BME280;63446;56.272;43.922;2023-03-31T06:29:51;99868.75;;;9.01;67.41
74893;BME280;63446;56.272;43.922;2023-03-31T06:32:17;99867.47;;;8.93;67.69
74893;BME280;63446;56.272;43.922;2023-03-31T06:34:43;99865.09;;;8.87;67.79
74893;BME280;63446;56.272;43.922;2023-03-31T06:37:09;99854.59;;;8.82;67.93
74893;BME280;63446;56.272;43.922;2023-03-31T06:39:35;99862.50;;;8.82;68.12
74893;BME280;63446;56.272;43.922;2023-03-31T06:42:01;99868.56;;;8.77;68.27
74893;BME280;63446;56.272;43.922;2023-03-31T06:44:27;99864.63;;;8.74;68.23
74893;BME280;63446;56.272;43.922;2023-03-31T06:46:53;99863.03;;;8.73;68.40
74893;BME280;63446;56.272;43.922;2023-03-31T06:49:19;99860.16;;;8.70;68.57
74893;BME280;63446;56.272;43.922;2023-03-31T06:51:45;99874.13;;;8.65;68.68
74893;BME280;63446;56.272;43.922;2023-03-31T06:54:11;99863.88;;;8.59;68.85
74893;BME280;63446;56.272;43.922;2023-03-31T06:56:37;99847.84;;;8.50;69.01
74893;BME280;63446;56.272;43.922;2023-03-31T06:59:03;99859.97;;;8.46;69.44
74893;BME280;63446;56.272;43.922;2023-03-31T07:01:29;99848.38;;;8.42;69.61
74893;BME280;63446;56.272;43.922;2023-03-31T07:03:55;99848.34;;;8.37;69.89
74893;BME280;63446;56.272;43.922;2023-03-31T07:06:22;99855.19;;;8.32;70.09
74893;BME280;63446;56.272;43.922;2023-03-31T07:08:48;99859.41;;;8.28;70.13
74893;BME280;63446;56.272;43.922;2023-03-31T07:11:13;99867.31;;;8.28;70.39
74893;BME280;63446;56.272;43.922;2023-03-31T07:13:40;99859.16;;;8.25;70.61
74893;BME280;63446;56.272;43.922;2023-03-31T07:16:06;99866.25;;;8.24;70.77
74893;BME280;63446;56.272;43.922;2023-03-31T07:18:32;99862.59;;;8.20;70.94
74893;BME280;63446;56.272;43.922;2023-03-31T07:20:59;99860.47;;;8.17;71.06
74893;BME280;63446;56.272;43.922;2023-03-31T07:23:27;99858.13;;;8.16;71.26
74893;BME280;63446;56.272;43.922;2023-03-31T07:25:54;99853.09;;;8.14;71.29
74893;BME280;63446;56.272;43.922;2023-03-31T07:28:20;99851.25;;;8.15;71.36
74893;BME280;63446;56.272;43.922;2023-03-31T07:30:46;99852.59;;;8.12;71.57
74893;BME280;63446;56.272;43.922;2023-03-31T07:33:11;99866.81;;;8.11;71.84
74893;BME280;63446;56.272;43.922;2023-03-31T07:35:40;99854.41;;;8.06;71.87
74893;BME280;63446;56.272;43.922;2023-03-31T07:38:07;99852.59;;;8.02;72.13
74893;BME280;63446;56.272;43.922;2023-03-31T07:40:34;99843.38;;;7.99;72.26
74893;BME280;63446;56.272;43.922;2023-03-31T07:43:01;99851.53;;;7.98;72.32
74893;BME280;63446;56.272;43.922;2023-03-31T07:45:28;99852.59;;;7.97;72.53
74893;BME280;63446;56.272;43.922;2023-03-31T07:47:54;99848.91;;;7.98;72.49
74893;BME280;63446;56.272;43.922;2023-03-31T07:50:22;99859.94;;;7.95;72.57
74893;BME280;63446;56.272;43.922;2023-03-31T07:52:50;99848.41;;;7.96;72.60
74893;BME280;63446;56.272;43.922;2023-03-31T07:55:16;99845.75;;;7.96;72.70
74893;BME280;63446;56.272;43.922;2023-03-31T07:57:42;99848.91;;;7.98;72.76
74893;BME280;63446;56.272;43.922;2023-03-31T08:00:10;99838.38;;;7.98;72.82
74893;BME280;63446;56.272;43.922;2023-03-31T08:02:40;99833.66;;;8.00;72.81
74893;BME280;63446;56.272;43.922;2023-03-31T08:05:08;99823.41;;;8.03;72.84
74893;BME280;63446;56.272;43.922;2023-03-31T08:07:36;99823.63;;;8.07;72.79
74893;BME280;63446;56.272;43.922;2023-03-31T08:10:05;99831.78;;;8.11;72.76
74893;BME280;63446;56.272;43.922;2023-03-31T08:12:31;99840.50;;;8.11;72.65
74893;BME280;63446;56.272;43.922;2023-03-31T08:14:56;99841.00;;;8.13;72.78
74893;BME280;63446;56.272;43.922;2023-03-31T08:17:22;99838.66;;;8.12;72.83
74893;BME280;63446;56.272;43.922;2023-03-31T08:19:48;99842.59;;;8.09;72.91
74893;BME280;63446;56.272;43.922;2023-03-31T08:22:15;99839.69;;;8.05;73.15
74893;BME280;63446;56.272;43.922;2023-03-31T08:24:41;99833.63;;;8.05;73.24
74893;BME280;63446;56.272;43.922;2023-03-31T08:27:07;99836.56;;;8.03;73.36
74893;BME280;63446;56.272;43.922;2023-03-31T08:29:32;99836.53;;;7.98;73.42
74893;BME280;63446;56.272;43.922;2023-03-31T08:31:58;99830.47;;;7.98;73.38
74893;BME280;63446;56.272;43.922;2023-03-31T08:34:24;99822.59;;;7.93;73.61
74893;BME280;63446;56.272;43.922;2023-03-31T08:36:51;99819.72;;;7.89;73.71
74893;BME280;63446;56.272;43.922;2023-03-31T08:39:17;99826.28;;;7.87;73.60
74893;BME280;63446;56.272;43.922;2023-03-31T08:44:56;99814.69;;;7.82;73.94
74893;BME280;63446;56.272;43.922;2023-03-31T08:47:25;99817.09;;;7.84;73.89
74893;BME280;63446;56.272;43.922;2023-03-31T08:49:55;99810.75;;;7.85;74.00
74893;BME280;63446;56.272;43.922;2023-03-31T08:55:23;99809.97;;;7.85;74.13
74893;BME280;63446;56.272;43.922;2023-03-31T09:01:29;99806.28;;;7.86;74.37
74893;BME280;63446;56.272;43.922;2023-03-31T09:15:16;99801.03;;;7.80;74.94
74893;BME280;63446;56.272;43.922;2023-03-31T09:17:48;99783.41;;;7.81;74.95
74893;BME280;63446;56.272;43.922;2023-03-31T09:20:43;99770.78;;;7.78;75.23
74893;BME280;63446;56.272;43.922;2023-03-31T09:25:43;99771.06;;;7.76;75.11
74893;BME280;63446;56.272;43.922;2023-03-31T09:28:18;99781.03;;;7.79;75.11
74893;BME280;63446;56.272;43.922;2023-03-31T09:30:47;99776.84;;;7.73;75.26
74893;BME280;63446;56.272;43.922;2023-03-31T09:33:19;99772.38;;;7.69;75.56
74893;BME280;63446;56.272;43.922;2023-03-31T09:35:49;99751.56;;;7.67;75.46
74893;BME280;63446;56.272;43.922;2023-03-31T09:38:15;99748.97;;;7.62;75.57
74893;BME280;63446;56.272;43.922;2023-03-31T09:40:41;99736.59;;;7.57;75.73
74893;BME280;63446;56.272;43.922;2023-03-31T09:43:29;99731.09;;;7.54;75.99
74893;BME280;63446;56.272;43.922;2023-03-31T09:45:56;99725.81;;;7.54;75.80
74893;BME280;63446;56.272;43.922;2023-03-31T09:48:25;99731.09;;;7.54;75.80
74893;BME280;63446;56.272;43.922;2023-03-31T09:50:59;99724.50;;;7.51;76.26
74893;BME280;63446;56.272;43.922;2023-03-31T09:56:08;99717.91;;;7.59;76.02
74893;BME280;63446;56.272;43.922;2023-03-31T09:58:43;99715.03;;;7.61;75.89
74893;BME280;63446;56.272;43.922;2023-03-31T10:01:11;99722.41;;;7.58;76.13
74893;BME280;63446;56.272;43.922;2023-03-31T10:03:52;99711.88;;;7.58;76.06
74893;BME280;63446;56.272;43.922;2023-03-31T10:06:20;99708.97;;;7.60;75.96
74893;BME280;63446;56.272;43.922;2023-03-31T10:11:13;99693.19;;;7.60;76.11
74893;BME280;63446;56.272;43.922;2023-03-31T10:18:55;99693.72;;;7.67;76.23
74893;BME280;63446;56.272;43.922;2023-03-31T10:21:36;99689.50;;;7.76;76.27
74893;BME280;63446;56.272;43.922;2023-03-31T10:24:07;99682.09;;;7.83;76.05
74893;BME280;63446;56.272;43.922;2023-03-31T10:26:33;99678.16;;;7.91;75.87
74893;BME280;63446;56.272;43.922;2023-03-31T10:29:00;99648.94;;;7.98;75.74
74893;BME280;63446;56.272;43.922;2023-03-31T10:31:34;99646.00;;;8.10;75.44
74893;BME280;63446;56.272;43.922;2023-03-31T10:34:05;99638.31;;;8.18;75.22
74893;BME280;63446;56.272;43.922;2023-03-31T10:36:33;99648.06;;;8.23;75.09
74893;BME280;63446;56.272;43.922;2023-03-31T10:39:04;99663.06;;;8.17;74.97
74893;BME280;63446;56.272;43.922;2023-03-31T10:41:31;99676.78;;;8.09;74.99
74893;BME280;63446;56.272;43.922;2023-03-31T10:44:02;99694.16;;;8.05;75.00
74893;BME280;63446;56.272;43.922;2023-03-31T10:46:41;99707.34;;;8.00;75.10
74893;BME280;63446;56.272;43.922;2023-03-31T10:49:23;99683.66;;;7.95;75.24
74893;BME280;63446;56.272;43.922;2023-03-31T10:51:54;99670.81;;;7.88;75.24
74893;BME280;63446;56.272;43.922;2023-03-31T10:54:22;99693.97;;;7.81;75.43
74893;BME280;63446;56.272;43.922;2023-03-31T10:56:51;99690.81;;;7.79;75.21
74893;BME280;63446;56.272;43.922;2023-03-31T10:59:50;99706.88;;;7.67;75.13
74893;BME280;63446;56.272;43.922;2023-03-31T11:05:48;99693.22;;;7.50;75.43
74893;BME280;63446;56.272;43.922;2023-03-31T11:11:21;99690.59;;;7.34;75.40
74893;BME280;63446;56.272;43.922;2023-03-31T11:19:27;99679.53;;;7.32;75.49
74893;BME280;63446;56.272;43.922;2023-03-31T11:22:15;99676.13;;;7.32;75.33
74893;BME280;63446;56.272;43.922;2023-03-31T11:30:30;99683.75;;;7.33;74.88
74893;BME280;63446;56.272;43.922;2023-03-31T11:33:21;99669.56;;;7.24;74.97
74893;BME280;63446;56.272;43.922;2023-03-31T11:43:35;99662.97;;;7.22;74.82
74893;BME280;63446;56.272;43.922;2023-03-31T11:51:24;99657.22;;;7.20;74.54
74893;BME280;63446;56.272;43.922;2023-03-31T11:53:52;99653.81;;;7.19;74.35
74893;BME280;63446;56.272;43.922;2023-03-31T11:56:20;99649.84;;;7.17;74.40
74893;BME280;63446;56.272;43.922;2023-03-31T11:58:52;99644.06;;;7.15;74.42
74893;BME280;63446;56.272;43.922;2023-03-31T12:01:27;99653.00;;;7.14;74.35
74893;BME280;63446;56.272;43.922;2023-03-31T12:06:29;99662.44;;;7.15;74.28
74893;BME280;63446;56.272;43.922;2023-03-31T12:09:31;99660.38;;;7.12;74.18
74893;BME280;63446;56.272;43.922;2023-03-31T12:12:19;99660.63;;;7.10;74.08
74893;BME280;63446;56.272;43.922;2023-03-31T12:15:09;99660.91;;;7.08;74.17
74893;BME280;63446;56.272;43.922;2023-03-31T12:17:40;99655.88;;;7.07;74.08
74893;BME280;63446;56.272;43.922;2023-03-31T12:22:46;99651.72;;;7.11;74.22
74893;BME280;63446;56.272;43.922;2023-03-31T12:25:15;99660.88;;;7.14;74.26
74893;BME280;63446;56.272;43.922;2023-03-31T12:27:44;99653.28;;;7.17;74.21
74893;BME280;63446;56.272;43.922;2023-03-31T12:30:32;99641.97;;;7.17;74.09
74893;BME280;63446;56.272;43.922;2023-03-31T12:33:06;99638.03;;;7.14;74.17
74893;BME280;63446;56.272;43.922;2023-03-31T12:41:14;99631.19;;;7.23;74.16
74893;BME280;63446;56.272;43.922;2023-03-31T12:43:58;99633.28;;;7.26;74.16
74893;BME280;63446;56.272;43.922;2023-03-31T12:51:49;99627.78;;;7.28;74.14
74893;BME280;63446;56.272;43.922;2023-03-31T12:57:19;99633.81;;;7.28;74.26
74893;BME280;63446;56.272;43.922;2023-03-31T13:00:11;99629.63;;;7.27;74.26
74893;BME280;63446;56.272;43.922;2023-03-31T13:02:42;99637.50;;;7.27;74.28
74893;BME280;63446;56.272;43.922;2023-03-31T13:08:07;99619.91;;;7.23;74.44
74893;BME280;63446;56.272;43.922;2023-03-31T13:10:55;99618.31;;;7.22;74.51
74893;BME280;63446;56.272;43.922;2023-03-31T13:13:22;99618.31;;;7.22;74.50
74893;BME280;63446;56.272;43.922;2023-03-31T13:15:54;99617.53;;;7.21;74.49
74893;BME280;63446;56.272;43.922;2023-03-31T13:18:21;99615.69;;;7.22;74.58
74893;BME280;63446;56.272;43.922;2023-03-31T13:21:01;99618.88;;;7.19;74.57
74893;BME280;63446;56.272;43.922;2023-03-31T13:23:33;99613.84;;;7.17;74.70
74893;BME280;63446;56.272;43.922;2023-03-31T13:26:00;99623.59;;;7.12;74.81
74893;BME280;63446;56.272;43.922;2023-03-31T13:28:30;99619.91;;;7.07;74.78
74893;BME280;63446;56.272;43.922;2023-03-31T13:31:05;99614.41;;;7.04;74.92
74893;BME280;63446;56.272;43.922;2023-03-31T13:33:36;99602.84;;;7.00;74.96
74893;BME280;63446;56.272;43.922;2023-03-31T13:42:24;99608.09;;;6.84;75.35
74893;BME280;63446;56.272;43.922;2023-03-31T13:47:53;99605.69;;;6.83;75.46
74893;BME280;63446;56.272;43.922;2023-03-31T14:09:56;99604.41;;;6.85;75.86
74893;BME280;63446;56.272;43.922;2023-03-31T14:12:43;99600.44;;;6.83;75.90
74893;BME280;63446;56.272;43.922;2023-03-31T14:15:19;99610.97;;;6.83;76.06
74893;BME280;63446;56.272;43.922;2023-03-31T14:17:46;99614.63;;;6.82;75.94
74893;BME280;63446;56.272;43.922;2023-03-31T14:20:38;99610.19;;;6.77;76.05
74893;BME280;63446;56.272;43.922;2023-03-31T14:26:02;99596.25;;;6.72;76.19
74893;BME280;63446;56.272;43.922;2023-03-31T14:28:43;99598.88;;;6.72;76.16
74893;BME280;63446;56.272;43.922;2023-03-31T14:36:34;99589.16;;;6.62;76.47
74893;BME280;63446;56.272;43.922;2023-03-31T14:39:06;99600.69;;;6.61;76.42
74893;BME280;63446;56.272;43.922;2023-03-31T14:41:34;99596.50;;;6.60;76.56
74893;BME280;63446;56.272;43.922;2023-03-31T14:44:05;99603.06;;;6.57;76.75
74893;BME280;63446;56.272;43.922;2023-03-31T14:46:36;99597.28;;;6.55;76.83
74893;BME280;63446;56.272;43.922;2023-03-31T14:51:42;99605.16;;;6.55;76.86
74893;BME280;63446;56.272;43.922;2023-03-31T14:54:15;99607.50;;;6.57;76.92
74893;BME280;63446;56.272;43.922;2023-03-31T14:56:47;99602.53;;;6.50;76.95
74893;BME280;63446;56.272;43.922;2023-03-31T14:59:19;99604.88;;;6.52;77.09
74893;BME280;63446;56.272;43.922;2023-03-31T15:01:47;99612.25;;;6.50;77.12
74893;BME280;63446;56.272;43.922;2023-03-31T15:04:17;99604.59;;;6.48;77.40
74893;BME280;63446;56.272;43.922;2023-03-31T15:06:45;99604.09;;;6.51;77.26
74893;BME280;63446;56.272;43.922;2023-03-31T15:09:20;99611.19;;;6.51;77.40
74893;BME280;63446;56.272;43.922;2023-03-31T15:11:55;99607.50;;;6.52;77.48
74893;BME280;63446;56.272;43.922;2023-03-31T15:14:22;99609.63;;;6.55;77.45
74893;BME280;63446;56.272;43.922;2023-03-31T15:16:49;99608.56;;;6.56;77.44
74893;BME280;63446;56.272;43.922;2023-03-31T15:19:23;99614.34;;;6.58;77.52
74893;BME280;63446;56.272;43.922;2023-03-31T15:22:04;99609.88;;;6.58;77.45
74893;BME280;63446;56.272;43.922;2023-03-31T15:24:34;99618.53;;;6.64;77.52
74893;BME280;63446;56.272;43.922;2023-03-31T15:29:48;99631.16;;;6.72;77.83
74893;BME280;63446;56.272;43.922;2023-03-31T15:32:23;99654.03;;;6.82;77.96
74893;BME280;63446;56.272;43.922;2023-03-31T15:34:52;99635.66;;;6.87;77.82
74893;BME280;63446;56.272;43.922;2023-03-31T15:37:24;99633.28;;;6.91;77.70
74893;BME280;63446;56.272;43.922;2023-03-31T15:40:00;99639.59;;;6.95;77.71
74893;BME280;63446;56.272;43.922;2023-03-31T15:42:29;99647.75;;;6.98;77.84
74893;BME280;63446;56.272;43.922;2023-03-31T15:45:34;99645.38;;;7.02;77.67
74893;BME280;63446;56.272;43.922;2023-03-31T15:48:03;99647.75;;;7.03;77.51
74893;BME280;63446;56.272;43.922;2023-03-31T15:50:31;99645.38;;;7.07;77.48
74893;BME280;63446;56.272;43.922;2023-03-31T15:52:58;99654.06;;;7.07;77.35
74893;BME280;63446;56.272;43.922;2023-03-31T15:55:26;99656.16;;;7.10;77.41
74893;BME280;63446;56.272;43.922;2023-03-31T15:57:56;99656.41;;;7.14;77.20
74893;BME280;63446;56.272;43.922;2023-03-31T16:00:42;99654.56;;;7.15;77.10
74893;BME280;63446;56.272;43.922;2023-03-31T16:03:35;99653.78;;;7.14;76.72
74893;BME280;63446;56.272;43.922;2023-03-31T16:06:08;99661.66;;;7.14;76.46
74893;BME280;63446;56.272;43.922;2023-03-31T16:09:00;99661.66;;;7.14;76.31
74893;BME280;63446;56.272;43.922;2023-03-31T16:11:41;99661.16;;;7.17;76.19